Tiempo atmosférico en la estación meteorológica de Hijar, Teruel (300 m.)



Fecha
DESCASC
Temp. máxima en grados centígrados (hora)
DESCASC
Temp. mínima en grados centígrados (hora)
DESCASC
Temp. media en grados centígrados
DESCASC
Racha de viento máxima en m/sg (hora)
DESCASC
Velocidad máxima media en intervalos de 10 minutos(hora)
DESCASC
Precipitaciones diarias en mm
DESCASC
Precipitaciones de 00:00 a 06:00 en mm
DESCASC
Precipitaciones de 06:00 a 12:00 en mm
DESCASC
Precipitaciones de 12:00 a 18:00 en mm
DESCASC
Precipitaciones de 18:00 a 24:00 en mm
DESCASC
20-09-2018 32.1 (16:30) 17 (07:20) 24.5 6.67 (21:30) 4.44 (21:30) 0 0 0 0 0
19-09-2018 31.6 (17:00) 16.9 (07:30) 24.3 5.28 (14:10) 3.33 (01:10) 0 0 0 0 0
18-09-2018 29.2 (16:20) 16.6 (08:20) 22.9 6.67 (19:30) 5 (19:30) 0 0 0 0 0
17-09-2018 30.8 (14:50) 15.5 (08:00) 23.1 11.94 (21:00) 8.61 (21:00) 2.6 0 0 0 2.6
16-09-2018 31.1 (17:10) 14.9 (00:00) 23 5.56 (23:40) 3.61 (00:10) 0 0 0 0 0
15-09-2018 26.7 (16:10) 17 (00:00) 21.9 7.78 (19:50) 5.28 (19:50) 0 0 0 0 0
14-09-2018 29.4 (16:10) 16.6 (00:00) 23 8.61 (01:30) 6.11 (01:30) 0 0 0 0 0
13-09-2018 31.1 (16:20) 18.6 (00:00) 24.9 8.89 (10:20) 5.28 (09:50) 0 0 0 0 0
12-09-2018 30.6 (15:40) 17.4 (00:00) 24 7.5 (15:20) 3.89 (15:20) 0 0 0 0 0
11-09-2018 29 (15:30) 17.9 (00:00) 23.4 6.39 (16:00) 3.61 (19:50) 0.2 0 0 0 0.2
10-09-2018 28.8 (15:40) 17.9 (00:00) 23.3 6.67 (22:00) 5 (21:50) 0.2 0.2 0 0 0
09-09-2018 29.1 (16:10) 19.3 (00:00) 24.2 10.28 (21:20) 3.89 (04:00) 2.2 0.4 0 0 1.8
08-09-2018 29.3 (16:00) 16.3 (00:00) 22.8 9.17 (16:30) 6.11 (13:50) 0 0 0 0 0
07-09-2018 28 (16:00) 16.3 (00:00) 22.1 8.33 (00:30) 5.28 (00:30) 0 0 0 0 0
06-09-2018 28.1 (17:20) 17.5 (00:00) 22.8 6.94 (23:59) 4.72 (23:20) 0 0 0 0 0
05-09-2018 26.5 (14:10) 17.3 (00:00) 21.9 15 (16:20) 10.56 (16:30) 20 0 0 19.8 0.2
04-09-2018 28.9 (17:40) 16.8 (00:00) 22.8 7.22 (20:20) 4.72 (20:20) 0 0 0 0 0
03-09-2018 30.4 (16:10) 17.9 (00:00) 24.1 29.72 (20:30) 12.78 (20:30) 12.8 0 0 0 12.8
02-09-2018 33.3 (16:40) 16.5 (00:00) 24.9 4.72 (14:00) 3.61 (00:10) 0 0 0 0 0
01-09-2018 33 (17:10) 18.2 (00:00) 25.6 7.78 (02:00) 5.83 (02:00) 0 0 0 0 0
31-08-2018 31.8 (17:10) 18.5 (00:00) 25.1 8.33 (23:20) 5.56 (23:20) 0 0 0 0 0
30-08-2018 30.7 (16:50) 17.8 (00:00) 24.3 6.94 (05:20) 4.17 (05:00) 0 0 0 0 0
29-08-2018 31.9 (17:50) 18 (00:00) 24.9 15.83 (00:10) 10.28 (00:10) 1.2 1.2 0 0 0
28-08-2018 34.3 (16:20) 19.7 (00:00) 27 25.28 (19:20) 12.5 (19:20) 24.8 0 0 0 24.8
27-08-2018 34.2 (17:00) 18.1 (00:00) 26.2 5.83 (14:40) 3.61 (00:30) 0 0 0 0 0
26-08-2018 30.4 (16:50) 15.9 (00:00) 23.1 9.44 (00:50) 5.83 (00:30) 0 0 0 0 0
25-08-2018 30 (16:20) 16.1 (00:00) 23.1 9.72 (17:40) 5.83 (01:40) 0 0 0 0 0
24-08-2018 31.9 (16:10) 19 (00:00) 25.4 10.28 (15:40) 6.11 (11:00) 0 0 0 0 0
23-08-2018 34.7 (16:40) 19.3 (00:00) 27 8.89 (22:20) 4.44 (22:20) 0 0 0 0 0

Gráficas

Temp. máximas Temp. mínimas Temp. medias Precipitaciones Rachas de viento máximas Velocidades máximas media en intervalos de 10 minutos

Datos horarios

Fecha y hora oficial Temperatura (ºC) Velocidad del viento (km/h) Dirección del viento Racha (km/h) Dirección de racha Precipitación (mm) Presión (hPa) Tendencia (hPa) Humedad (%)
2018-09-21 23:00:00 23.9 14 Oeste 25 Oeste 0 -- -- 48
2018-09-21 22:00:00 24.9 13 Oeste 26 Oeste 0 -- -- 46
2018-09-21 21:00:00 26.5 12 Oeste 24 Noroeste 0 -- -- 43
2018-09-21 20:00:00 28.7 7 Noroeste 27 Norte 0 -- -- 40
2018-09-21 19:00:00 32 9 Norte 21 Norte 0 -- -- 36
2018-09-21 18:00:00 33.5 6 Norte 21 Noroeste 0 -- -- 34
2018-09-21 17:00:00 33.9 6 Norte 20 Norte 0 -- -- 33
2018-09-21 16:00:00 33.5 6 Noroeste 22 Norte 0 -- -- 35
2018-09-21 15:00:00 32.8 5 Norte 21 Norte 0 -- -- 39
2018-09-21 14:00:00 32.3 6 Noroeste 18 Noroeste 0 -- -- 41
2018-09-21 13:00:00 29.9 3 Oeste 10 Norte 0 -- -- 45
2018-09-21 12:00:00 28.2 4 Noroeste 10 Noroeste 0 -- -- 52
2018-09-21 11:00:00 26.1 4 Norte 9 Norte 0 -- -- 58
2018-09-21 10:00:00 22.8 3 Oeste 12 Oeste 0 -- -- 70
2018-09-21 09:00:00 19.6 7 Oeste 10 Sudoeste 0 -- -- 79
2018-09-21 08:00:00 18.3 5 Sudoeste 10 Sudoeste 0 -- -- 83
2018-09-21 07:00:00 18.8 5 Sudoeste 7 Sudoeste 0 -- -- 81
2018-09-21 06:00:00 19.1 3 Sudoeste 6 Oeste 0 -- -- 78
2018-09-21 05:00:00 20.3 0 Calma 5 Noroeste 0 -- -- 72
2018-09-21 04:00:00 21.9 3 Sudeste 8 Sudeste 0 -- -- 67
2018-09-21 03:00:00 21.9 4 Este 11 Este 0 -- -- 68
2018-09-21 02:00:00 21.8 2 Este 6 Nordeste 0 -- -- 68
2018-09-21 01:00:00 22.7 6 Este 10 Este 0 -- -- 66
2018-09-21 00:00:00 22.9 5 Sudoeste 16 Sudoeste 0 -- -- 64
2018-09-20 23:00:00 23.9 10 Sudoeste 16 Sur 0 -- -- 60
2018-09-20 22:00:00 26.4 9 Sudoeste 24 Sur 0 -- -- 56
2018-09-20 21:00:00 27.2 9 Sudeste 15 Sudeste 0 -- -- 45
2018-09-20 20:00:00 29 9 Este 15 Este 0 -- -- 41
2018-09-20 19:00:00 30.6 9 Nordeste 20 Nordeste 0 -- -- 38
2018-09-20 18:00:00 31.6 9 Este 19 Nordeste 0 -- -- 37
2018-09-20 17:00:00 31.9 6 Este 15 Nordeste 0 -- -- 38
2018-09-20 16:00:00 31.7 6 Este 20 Nordeste 0 -- -- 40
2018-09-20 15:00:00 31 8 Nordeste 16 Este 0 -- -- 42
2018-09-20 14:00:00 29.4 8 Este 12 Este 0 -- -- 47
2018-09-20 13:00:00 27.7 4 Norte 9 Nordeste 0 -- -- 55
2018-09-20 12:00:00 25.6 4 Norte 8 Norte 0 -- -- 62
2018-09-20 11:00:00 24.3 3 Norte 6 Norte 0 -- -- 70
2018-09-20 10:00:00 21.4 3 Oeste 10 Oeste 0 -- -- 74
2018-09-20 09:00:00 18.2 8 Sudoeste 12 Sudoeste 0 -- -- 76
2018-09-20 08:00:00 17 7 Oeste 12 Oeste 0 -- -- 81
2018-09-20 07:00:00 17.3 7 Sudoeste 10 Sudoeste 0 -- -- 80
2018-09-20 06:00:00 17.4 4 Sudoeste 9 Oeste 0 -- -- 81
2018-09-20 05:00:00 17.9 4 Sudoeste 6 Sudoeste 0 -- -- 78
2018-09-20 04:00:00 18.8 3 Sur 5 Oeste 0 -- -- 74
2018-09-20 03:00:00 19.7 2 Sudeste 6 Oeste 0 -- -- 71
2018-09-20 02:00:00 20.2 3 Sudeste 8 Sudoeste 0 -- -- 69
2018-09-20 01:00:00 20.7 3 Sur 12 Sudoeste 0 -- -- 67
2018-09-20 00:00:00 21.6 6 Sudoeste 14 Sudoeste 0 -- -- 65
2018-09-19 23:00:00 22.4 8 Sudoeste 12 Sudoeste 0 -- -- 62
2018-09-19 22:00:00 23.5 8 Sudoeste 12 Sudoeste 0 -- -- 60
2018-09-19 21:00:00 25.8 4 Sudeste 8 Este 0 -- -- 51
2018-09-19 20:00:00 27.7 5 Este 9 Nordeste 0 -- -- 45
2018-09-19 19:00:00 29.1 6 Nordeste 15 Este 0 -- -- 43
2018-09-19 18:00:00 30.1 5 Nordeste 10 Este 0 -- -- 42
2018-09-19 17:00:00 31.6 5 Norte 12 Nordeste 0 -- -- 40
2018-09-19 16:00:00 30.9 4 Norte 15 Nordeste 0 -- -- 45
2018-09-19 15:00:00 29.5 4 Nordeste 19 Este 0 -- -- 48
2018-09-19 14:00:00 28.2 4 Nordeste 17 Este 0 -- -- 52
2018-09-19 13:00:00 26.9 6 Nordeste 13 Este 0 -- -- 58
2018-09-19 12:00:00 25.1 6 Este 14 Nordeste 0 -- -- 66
2018-09-19 11:00:00 23.3 7 Este 12 Nordeste 0 -- -- 73
2018-09-19 10:00:00 21.5 4 Este 8 Este 0 -- -- 79
2018-09-19 09:00:00 18.4 3 Sudoeste 10 Sudoeste 0 -- -- 89
2018-09-19 08:00:00 17 5 Sudoeste 13 Sudoeste 0 -- -- 93
2018-09-19 07:00:00 17.4 5 Sudoeste 10 Sudoeste 0 -- -- 92
2018-09-19 06:00:00 17.9 3 Sudoeste 7 Sudoeste 0 -- -- 92
2018-09-19 05:00:00 18.3 5 Sudoeste 7 Sudoeste 0 -- -- 90
2018-09-19 04:00:00 19 2 Sur 6 Este 0 -- -- 86
2018-09-19 03:00:00 19.3 3 Este 12 Este 0 -- -- 86
2018-09-19 02:00:00 20 6 Sudoeste 15 Sudoeste 0 -- -- 85
2018-09-19 01:00:00 20.2 9 Sudoeste 13 Sudoeste 0 -- -- 82
2018-09-19 00:00:00 21.3 7 Nordeste 15 Nordeste 0 -- -- 77
2018-09-18 23:00:00 21.7 13 Este 21 Este 0 -- -- 76
2018-09-18 22:00:00 23.5 12 Este 20 Nordeste 0 -- -- 70
2018-09-18 21:00:00 24.6 9 Este 15 Este 0 -- -- 63
2018-09-18 20:00:00 26 12 Este 24 Este 0 -- -- 60
2018-09-18 19:00:00 28.1 6 Este 19 Este 0 -- -- 44
2018-09-18 18:00:00 28.9 9 Este 22 Nordeste 0 -- -- 42
2018-09-18 17:00:00 28.8 9 Nordeste 22 Nordeste 0 -- -- 47
2018-09-18 16:00:00 28.8 7 Nordeste 20 Este 0 -- -- 47
2018-09-18 15:00:00 27.9 5 Este 13 Nordeste 0 -- -- 52
2018-09-18 14:00:00 26.9 4 Norte 13 Este 0 -- -- 58
2018-09-18 13:00:00 26 5 Nordeste 12 Nordeste 0 -- -- 64
2018-09-18 12:00:00 24.6 3 Nordeste 10 Este 0 -- -- 67
2018-09-18 11:00:00 22.9 3 Norte 9 Oeste 0 -- -- 70
2018-09-18 10:00:00 19.6 7 Sudoeste 12 Oeste 0 -- -- 81
2018-09-18 09:00:00 17.3 7 Sudoeste 14 Sudoeste 0 -- -- 88
2018-09-18 08:00:00 16.9 4 Sudoeste 7 Oeste 0 -- -- 88
2018-09-18 07:00:00 17.5 3 Sudoeste 8 Sudoeste 0 -- -- 87
2018-09-18 06:00:00 17.9 3 Oeste 9 Sudoeste 0 -- -- 87
2018-09-18 05:00:00 18.1 6 Sudoeste 10 Oeste 0 -- -- 87
2018-09-18 04:00:00 18.5 6 Sur 9 Sudoeste 0 -- -- 84
2018-09-18 03:00:00 19 0 Calma 8 Oeste 0 -- -- 86
2018-09-18 02:00:00 19.1 6 Sudoeste 11 Sudoeste 0 -- -- 84
2018-09-18 01:00:00 19.6 3 Noroeste 15 Sur 0 -- -- 81
2018-09-18 00:00:00 19.2 0 Calma 9 Sudoeste 0 -- -- 83
2018-09-17 23:00:00 19.4 8 Oeste 36 Este 0.6 -- -- 82
2018-09-17 22:00:00 18.8 22 Sudoeste 39 Sudoeste 1.8 -- -- 82
2018-09-17 21:00:00 21.1 31 Sudoeste 43 Sudoeste 0 -- -- 71
2018-09-17 20:00:00 23.2 7 Sudoeste 15 Sudeste 0.2 -- -- 81
2018-09-17 19:00:00 24.9 12 Sudeste 22 Sudeste 0 -- -- 68
2018-09-17 18:00:00 26.1 13 Sudeste 33 Este 0 -- -- 57
2018-09-17 17:00:00 28.3 20 Este 31 Este 0 -- -- 51
2018-09-17 16:00:00 30.4 17 Este 28 Este 0 -- -- 45
2018-09-17 15:00:00 30.5 12 Nordeste 24 Nordeste 0 -- -- 49
2018-09-17 14:00:00 29.5 9 Nordeste 22 Nordeste 0 -- -- 49
2018-09-17 13:00:00 27.6 5 Nordeste 16 Nordeste 0 -- -- 58
2018-09-17 12:00:00 24.8 6 Nordeste 12 Nordeste 0 -- -- 61
2018-09-17 11:00:00 24.1 3 Norte 8 Oeste 0 -- -- 62
2018-09-17 10:00:00 21.2 3 Noroeste 10 Sudoeste 0 -- -- 67
2018-09-17 09:00:00 16.9 6 Sudoeste 11 Sudoeste 0 -- -- 75
2018-09-17 08:00:00 15.5 9 Sudoeste 12 Sudoeste 0 -- -- 77
2018-09-17 07:00:00 15.9 4 Sudoeste 9 Sudoeste 0 -- -- 78
2018-09-17 06:00:00 16.5 6 Oeste 13 Sudoeste 0 -- -- 75
2018-09-17 05:00:00 17 9 Sudoeste 12 Sudoeste 0 -- -- 78
2018-09-17 04:00:00 17.8 6 Sudoeste 9 Sudoeste 0 -- -- 76
2018-09-17 03:00:00 18.7 0 Calma 4 Sur 0 -- -- 67
2018-09-17 02:00:00 19.3 2 Noroeste 11 Oeste 0 -- -- 64
2018-09-17 01:00:00 20.5 5 Sudoeste 10 Nordeste 0 -- -- 61
2018-09-17 00:00:00 22.2 5 Nordeste 20 Sur 0 -- -- 61
2018-09-16 23:00:00 22.4 8 Este 14 Este 0 -- -- 53
2018-09-16 22:00:00 23.4 2 Nordeste 13 Nordeste 0 -- -- 48
2018-09-16 21:00:00 25.4 2 Sudeste 6 Este 0 -- -- 43
2018-09-16 20:00:00 27.6 7 Este 10 Este 0 -- -- 38
2018-09-16 19:00:00 29.1 7 Este 14 Este 0 -- -- 36
2018-09-16 18:00:00 30.3 7 Nordeste 16 Nordeste 0 -- -- 38
2018-09-16 17:00:00 30.8 5 Nordeste 14 Este 0 -- -- 37
2018-09-16 16:00:00 30.2 4 Nordeste 19 Nordeste 0 -- -- 39
2018-09-16 15:00:00 29.5 10 Este 19 Este 0 -- -- 41
2018-09-16 14:00:00 28.1 8 Este 16 Nordeste 0 -- -- 47
2018-09-16 13:00:00 26.9 6 Nordeste 16 Nordeste 0 -- -- 49
2018-09-16 12:00:00 25.2 5 Nordeste 12 Nordeste 0 -- -- 54
2018-09-16 11:00:00 23 3 Nordeste 9 Nordeste 0 -- -- 57
2018-09-16 10:00:00 20.7 0 Calma 8 Sudoeste 0 -- -- 65
2018-09-16 09:00:00 16.7 7 Sudoeste 11 Sudoeste 0 -- -- 74
2018-09-16 08:00:00 15.1 4 Sudoeste 6 Sudoeste 0 -- -- 79
2018-09-16 07:00:00 15.1 6 Sudoeste 10 Oeste 0 -- -- 78
2018-09-16 06:00:00 15.1 6 Sudoeste 10 Sudoeste 0 -- -- 80
2018-09-16 05:00:00 15.7 4 Sudoeste 13 Sudoeste 0 -- -- 78
2018-09-16 04:00:00 15.9 6 Sudoeste 9 Sudoeste 0 -- -- 80
2018-09-16 03:00:00 16.7 4 Sudoeste 11 Oeste 0 -- -- 79
2018-09-16 02:00:00 18 5 Sudoeste 8 Sudoeste 0 -- -- 76
2018-09-16 01:00:00 19.5 5 Nordeste 18 Sudeste 0 -- -- 70
2018-09-16 00:00:00 20.3 17 Sudeste 24 Sudeste 0 -- -- 67
2018-09-15 23:00:00 20.9 12 Nordeste 17 Nordeste 0 -- -- 68
2018-09-15 22:00:00 22.5 4 Este 15 Sur 0 -- -- 58
2018-09-15 21:00:00 23.7 11 Sur 24 Sudeste 0 -- -- 56
2018-09-15 20:00:00 25.3 14 Sudeste 28 Sudeste 0 -- -- 54
2018-09-15 19:00:00 25.6 14 Nordeste 23 Este 0 -- -- 51
2018-09-15 18:00:00 25.7 13 Este 24 Este 0 -- -- 49
2018-09-15 17:00:00 26.1 13 Este 20 Este 0 -- -- 49
2018-09-15 16:00:00 26.5 6 Este 15 Este 0 -- -- 48
2018-09-15 15:00:00 25.5 4 Nordeste 13 Nordeste 0 -- -- 51
2018-09-15 14:00:00 23.6 6 Nordeste 11 Este 0 -- -- 54
2018-09-15 13:00:00 23.8 3 Norte 13 Norte 0 -- -- 55
2018-09-15 12:00:00 23.4 6 Noroeste 16 Noroeste 0 -- -- 56
2018-09-15 11:00:00 21.1 8 Oeste 15 Oeste 0 -- -- 63
2018-09-15 10:00:00 18.9 6 Oeste 13 Oeste 0 -- -- 72
2018-09-15 09:00:00 17.5 9 Oeste 20 Noroeste 0 -- -- 77
2018-09-15 08:00:00 17 8 Sudoeste 12 Sudoeste 0 -- -- 79
2018-09-15 07:00:00 17 9 Sudoeste 11 Sudoeste 0 -- -- 79
2018-09-15 06:00:00 17.5 9 Sudoeste 11 Oeste 0 -- -- 76
2018-09-15 05:00:00 18.5 5 Oeste 13 Oeste 0 -- -- 72
2018-09-15 04:00:00 19.2 10 Sudoeste 15 Oeste 0 -- -- 69
2018-09-15 03:00:00 19.9 8 Oeste 14 Oeste 0 -- -- 68
2018-09-15 02:00:00 20.9 10 Sudoeste 18 Sudoeste 0 -- -- 65
2018-09-15 01:00:00 21.2 8 Oeste 25 Noroeste 0 -- -- 62
2018-09-15 00:00:00 20.5 12 Sudoeste 16 Sudoeste 0 -- -- 63
2018-09-14 23:00:00 21.3 12 Sudoeste 16 Sudoeste 0 -- -- 61
2018-09-14 22:00:00 22.3 11 Sudoeste 14 Sudoeste 0 -- -- 58
2018-09-14 21:00:00 23.7 8 Sudoeste 11 Sur 0 -- -- 56
2018-09-14 20:00:00 26.3 4 Sur 7 Sudeste 0 -- -- 46
2018-09-14 19:00:00 27.8 3 Sudeste 13 Nordeste 0 -- -- 43
2018-09-14 18:00:00 28.7 5 Nordeste 15 Este 0 -- -- 43
2018-09-14 17:00:00 29.2 4 Nordeste 15 Nordeste 0 -- -- 41
2018-09-14 16:00:00 29.3 5 Norte 14 Este 0 -- -- 40
2018-09-14 15:00:00 27.8 5 Nordeste 13 Noroeste 0 -- -- 44
2018-09-14 14:00:00 26.7 4 Nordeste 12 Norte 0 -- -- 46
2018-09-14 13:00:00 25.4 4 Noroeste 12 Norte 0 -- -- 48
2018-09-14 12:00:00 24.9 4 Noroeste 18 Oeste 0 -- -- 52
2018-09-14 11:00:00 22.9 8 Oeste 22 Noroeste 0 -- -- 59
2018-09-14 10:00:00 20.2 14 Oeste 22 Oeste 0 -- -- 65
2018-09-14 09:00:00 17.5 12 Oeste 17 Oeste 0 -- -- 73
2018-09-14 08:00:00 16.6 9 Sudoeste 15 Sudoeste 0 -- -- 76
2018-09-14 07:00:00 16.9 12 Sudoeste 20 Oeste 0 -- -- 75
2018-09-14 06:00:00 17.5 12 Sudoeste 24 Oeste 0 -- -- 72
2018-09-14 05:00:00 18.4 17 Oeste 27 Oeste 0 -- -- 69
2018-09-14 04:00:00 18.7 13 Oeste 26 Oeste 0 -- -- 67
2018-09-14 03:00:00 19.3 17 Oeste 26 Oeste 0 -- -- 65
2018-09-14 02:00:00 20.1 15 Sudoeste 31 Oeste 0 -- -- 62
2018-09-14 01:00:00 20.5 14 Sudoeste 23 Sudoeste 0 -- -- 62
2018-09-14 00:00:00 21.3 17 Sudoeste 26 Oeste 0 -- -- 60
2018-09-13 23:00:00 21.3 12 Sudoeste 21 Oeste 0 -- -- 62
2018-09-13 22:00:00 22.5 9 Noroeste 20 Oeste 0 -- -- 56
2018-09-13 21:00:00 24.1 5 Noroeste 15 Oeste 0 -- -- 51
2018-09-13 20:00:00 26.2 4 Noroeste 23 Norte 0 -- -- 46
2018-09-13 19:00:00 28.7 8 Noroeste 24 Norte 0 -- -- 41
2018-09-13 18:00:00 30.1 7 Noroeste 24 Noroeste 0 -- -- 36
2018-09-13 17:00:00 30.4 7 Noroeste 20 Norte 0 -- -- 39
2018-09-13 16:00:00 30.7 6 Noroeste 23 Noroeste 0 -- -- 40
2018-09-13 15:00:00 30.3 9 Noroeste 24 Noroeste 0 -- -- 41
2018-09-13 14:00:00 28.9 12 Oeste 28 Oeste 0 -- -- 43
2018-09-13 13:00:00 27.6 7 Noroeste 25 Oeste 0 -- -- 48
2018-09-13 12:00:00 26 14 Oeste 30 Noroeste 0 -- -- 53
2018-09-13 11:00:00 24.4 13 Noroeste 32 Oeste 0 -- -- 59
2018-09-13 10:00:00 21.7 17 Oeste 31 Oeste 0 -- -- 68
2018-09-13 09:00:00 19.6 15 Oeste 22 Oeste 0 -- -- 76
2018-09-13 08:00:00 18.6 14 Oeste 23 Oeste 0 -- -- 78
2018-09-13 07:00:00 19 14 Sudoeste 23 Sudoeste 0 -- -- 77
2018-09-13 06:00:00 19.1 12 Oeste 24 Oeste 0 -- -- 78
2018-09-13 05:00:00 19.3 13 Oeste 21 Oeste 0 -- -- 78
2018-09-13 04:00:00 19.9 9 Oeste 24 Noroeste 0 -- -- 74
2018-09-13 03:00:00 20.5 13 Oeste 25 Noroeste 0 -- -- 68
2018-09-13 02:00:00 20 9 Sudoeste 16 Sudoeste 0 -- -- 71
2018-09-13 01:00:00 20.3 13 Sudoeste 17 Sudoeste 0 -- -- 73
2018-09-13 00:00:00 20.8 10 Sudoeste 15 Sudoeste 0 -- -- 70
2018-09-12 23:00:00 20.7 12 Sudoeste 16 Sudoeste 0 -- -- 73
2018-09-12 22:00:00 22.1 9 Sudoeste 11 Sudoeste 0 -- -- 65
2018-09-12 21:00:00 23.5 3 Noroeste 12 Noroeste 0 -- -- 58
2018-09-12 20:00:00 25.3 7 Norte 22 Noroeste 0 -- -- 53
2018-09-12 19:00:00 27.8 7 Norte 19 Norte 0 -- -- 49
2018-09-12 18:00:00 29 9 Noroeste 21 Norte 0 -- -- 48
2018-09-12 17:00:00 28.6 9 Norte 23 Noroeste 0 -- -- 52
2018-09-12 16:00:00 30 9 Norte 27 Oeste 0 -- -- 46
2018-09-12 15:00:00 29.8 10 Noroeste 24 Oeste 0 -- -- 45
2018-09-12 14:00:00 28.3 9 Oeste 23 Oeste 0 -- -- 51
2018-09-12 13:00:00 26.8 6 Oeste 19 Oeste 0 -- -- 55
2018-09-12 12:00:00 24.8 5 Noroeste 15 Noroeste 0 -- -- 69
2018-09-12 11:00:00 21.8 6 Noroeste 21 Oeste 0 -- -- 80
2018-09-12 10:00:00 20.1 4 Oeste 10 Oeste 0 -- -- 84
2018-09-12 09:00:00 20 4 Oeste 9 Sudoeste 0 -- -- 81
2018-09-12 08:00:00 17.8 8 Sudoeste 12 Sudoeste 0 -- -- 89
2018-09-12 07:00:00 17.4 10 Sudoeste 14 Sudoeste 0 -- -- 90
2018-09-12 06:00:00 17.9 5 Sudoeste 8 Sur 0 -- -- 86
2018-09-12 05:00:00 18.9 2 Oeste 10 Este 0 -- -- 79
2018-09-12 04:00:00 19.9 4 Este 16 Sur 0 -- -- 76
2018-09-12 03:00:00 21.3 9 Sur 21 Sur 0 -- -- 69
2018-09-12 02:00:00 20.9 8 Sur 17 Sur 0 -- -- 74
2018-09-12 01:00:00 20.3 3 Sudeste 8 Sudoeste 0 -- -- 80
2018-09-12 00:00:00 20.4 4 Oeste 15 Sur 0 -- -- 81
2018-09-11 23:00:00 20.6 5 Sudoeste 11 Sudoeste 0 -- -- 81
2018-09-11 22:00:00 21.2 6 Sudoeste 13 Sudoeste 0 -- -- 82
2018-09-11 21:00:00 22.1 9 Sudoeste 15 Sudoeste 0 -- -- 78
2018-09-11 20:00:00 23.7 6 Sur 19 Sudoeste 0.2 -- -- 71
2018-09-11 19:00:00 25.7 0 Calma 5 Norte 0 -- -- 57
2018-09-11 18:00:00 26.3 3 Norte 19 Este 0 -- -- 54
2018-09-11 17:00:00 27.8 12 Nordeste 22 Este 0 -- -- 48
2018-09-11 16:00:00 27.9 11 Este 23 Este 0 -- -- 47
2018-09-11 15:00:00 26.9 9 Nordeste 21 Nordeste 0 -- -- 53
2018-09-11 14:00:00 25.6 5 Norte 12 Este 0 -- -- 64
2018-09-11 13:00:00 23 6 Este 13 Nordeste 0 -- -- 68
2018-09-11 12:00:00 23.7 4 Este 10 Este 0 -- -- 66
2018-09-11 11:00:00 22.4 2 Noroeste 6 Oeste 0 -- -- 72
2018-09-11 10:00:00 19.4 2 Sudoeste 4 Oeste 0 -- -- 81
2018-09-11 09:00:00 18.2 0 Calma 4 Sudoeste 0 -- -- 83
2018-09-11 08:00:00 17.9 3 Sudoeste 8 Oeste 0 -- -- 81
2018-09-11 07:00:00 18.5 8 Oeste 13 Sudoeste 0 -- -- 80
2018-09-11 06:00:00 18.6 10 Sudoeste 14 Sudoeste 0 -- -- 81
2018-09-11 05:00:00 18.9 9 Sudoeste 12 Sudoeste 0 -- -- 81
2018-09-11 04:00:00 19.5 4 Sudoeste 5 Sudoeste 0 -- -- 77
2018-09-11 03:00:00 20.2 2 Nordeste 6 Norte 0 -- -- 74
2018-09-11 02:00:00 20.9 2 Oeste 9 Sudoeste 0 -- -- 69
2018-09-11 01:00:00 21.2 5 Sudoeste 9 Sudoeste 0 -- -- 70
2018-09-11 00:00:00 22.6 6 Oeste 18 Sur 0 -- -- 64
2018-09-10 23:00:00 23.5 15 Sur 23 Sur 0 -- -- 58
2018-09-10 22:00:00 23.9 16 Sur 24 Sudeste 0 -- -- 57
2018-09-10 21:00:00 24.3 13 Sudeste 21 Sudeste 0 -- -- 60
2018-09-10 20:00:00 26.3 3 Nordeste 6 Nordeste 0 -- -- 51
2018-09-10 19:00:00 27.7 2 Sur 13 Nordeste 0 -- -- 49
2018-09-10 18:00:00 27.8 6 Este 12 Este 0 -- -- 48
2018-09-10 17:00:00 27.9 5 Este 13 Nordeste 0 -- -- 49
2018-09-10 16:00:00 27.9 3 Nordeste 9 Noroeste 0 -- -- 50
2018-09-10 15:00:00 26.5 4 Este 12 Noroeste 0 -- -- 56
2018-09-10 14:00:00 26.6 4 Nordeste 16 Oeste 0 -- -- 59
2018-09-10 13:00:00 26.3 4 Noroeste 16 Oeste 0 -- -- 62
2018-09-10 12:00:00 24.5 7 Oeste 15 Oeste 0 -- -- 67
2018-09-10 11:00:00 23.1 7 Noroeste 18 Oeste 0 -- -- 72
2018-09-10 10:00:00 20 7 Sudoeste 11 Sudoeste 0 -- -- 80
2018-09-10 09:00:00 18.7 4 Oeste 13 Oeste 0 -- -- 84
2018-09-10 08:00:00 18.6 8 Oeste 13 Oeste 0 -- -- 85
2018-09-10 07:00:00 18.6 4 Sudoeste 9 Oeste 0 -- -- 83
2018-09-10 06:00:00 18.6 6 Sudoeste 16 Oeste 0 -- -- 85
2018-09-10 05:00:00 18.8 12 Sudoeste 18 Oeste 0 -- -- 84
2018-09-10 04:00:00 18 9 Sudoeste 12 Oeste 0 -- -- 88
2018-09-10 03:00:00 18.5 8 Sudoeste 13 Oeste 0 -- -- 86
2018-09-10 02:00:00 19.3 3 Sudoeste 7 Oeste 0 -- -- 79
2018-09-10 01:00:00 19.2 5 Oeste 13 Sudoeste 0.2 -- -- 83
2018-09-10 00:00:00 19.3 5 Norte 20 Norte 0.4 -- -- 86
2018-09-09 23:00:00 20.1 10 Sudoeste 16 Sudoeste 1.4 -- -- 83
2018-09-09 22:00:00 21.2 9 Sudeste 37 Nordeste 0 -- -- 70
2018-09-09 21:00:00 24.3 4 Sudoeste 10 Sur 0 -- -- 58
2018-09-09 20:00:00 25.3 4 Sudoeste 15 Sur 0 -- -- 57
2018-09-09 19:00:00 26.2 3 Sudoeste 6 Este 0 -- -- 57
2018-09-09 18:00:00 27.1 4 Este 13 Nordeste 0 -- -- 51
2018-09-09 17:00:00 28 5 Nordeste 13 Nordeste 0 -- -- 53
2018-09-09 16:00:00 28.8 4 Nordeste 14 Este 0 -- -- 53
2018-09-09 15:00:00 27.9 7 Nordeste 15 Este 0 -- -- 55
2018-09-09 14:00:00 27.2 4 Este 11 Norte 0 -- -- 59
2018-09-09 13:00:00 25.7 5 Nordeste 10 Nordeste 0 -- -- 66
2018-09-09 12:00:00 25.5 4 Norte 14 Noroeste 0 -- -- 64
2018-09-09 11:00:00 24.3 5 Norte 13 Norte 0 -- -- 68
2018-09-09 10:00:00 22.4 3 Noroeste 11 Oeste 0 -- -- 77
2018-09-09 09:00:00 20.5 6 Sudoeste 10 Sudoeste 0 -- -- 82
2018-09-09 08:00:00 19.6 4 Sudoeste 10 Oeste 0 -- -- 85
2018-09-09 07:00:00 19.7 5 Oeste 9 Oeste 0 -- -- 84
2018-09-09 06:00:00 19.5 2 Oeste 11 Oeste 0 -- -- 85
2018-09-09 05:00:00 19.4 7 Sudoeste 20 Oeste 0.2 -- -- 85
2018-09-09 04:00:00 19.4 14 Oeste 21 Oeste 0.2 -- -- 87
2018-09-09 03:00:00 21.6 5 Noroeste 19 Noroeste 0 -- -- 81
2018-09-09 02:00:00 21.9 8 Oeste 14 Oeste 0 -- -- 78
2018-09-09 01:00:00 21.8 8 Sudoeste 10 Sudoeste 0 -- -- 74
2018-09-09 00:00:00 22.9 8 Sudeste 17 Este 0 -- -- 67
2018-09-08 23:00:00 23.5 10 Este 17 Este 0 -- -- 64
2018-09-08 22:00:00 24.1 9 Nordeste 24 Sudeste 0 -- -- 61
2018-09-08 21:00:00 25.2 17 Sudeste 26 Sudeste 0 -- -- 53
2018-09-08 20:00:00 26.8 14 Sudeste 25 Sudeste 0 -- -- 48
2018-09-08 19:00:00 28.2 17 Sudeste 27 Sudeste 0 -- -- 45
2018-09-08 18:00:00 28.7 18 Sudeste 28 Sudeste 0 -- -- 46
2018-09-08 17:00:00 28.4 19 Este 33 Este 0 -- -- 47
2018-09-08 16:00:00 29.3 19 Este 32 Este 0 -- -- 45
2018-09-08 15:00:00 27.4 22 Nordeste 31 Nordeste 0 -- -- 54
2018-09-08 14:00:00 26.7 18 Nordeste 30 Nordeste 0 -- -- 57
2018-09-08 13:00:00 26 13 Este 19 Nordeste 0 -- -- 59
2018-09-08 12:00:00 24.7 6 Nordeste 14 Este 0 -- -- 61
2018-09-08 11:00:00 23.3 3 Norte 8 Este 0 -- -- 64
2018-09-08 10:00:00 21.2 2 Norte 9 Sudoeste 0 -- -- 67
2018-09-08 09:00:00 18 7 Sudoeste 10 Sudoeste 0 -- -- 80
2018-09-08 08:00:00 16.4 5 Sudoeste 12 Sudoeste 0 -- -- 85
2018-09-08 07:00:00 16.4 6 Sudoeste 15 Sudoeste 0 -- -- 86
2018-09-08 06:00:00 17.2 5 Sudoeste 8 Sudoeste 0 -- -- 81
2018-09-08 05:00:00 17.9 3 Sudoeste 8 Sudoeste 0 -- -- 81
2018-09-08 04:00:00 18.5 3 Sudoeste 8 Oeste 0 -- -- 80
2018-09-08 03:00:00 18.9 6 Oeste 10 Oeste 0 -- -- 80
2018-09-08 02:00:00 20 4 Sudoeste 6 Sudoeste 0 -- -- 76
2018-09-08 01:00:00 21 3 Oeste 7 Noroeste 0 -- -- 72
2018-09-08 00:00:00 21.5 3 Norte 6 Sur 0 -- -- 68
2018-09-07 23:00:00 22.2 3 Sudoeste 7 Sudeste 0 -- -- 64
2018-09-07 22:00:00 23.3 5 Sudeste 7 Sudeste 0 -- -- 57
2018-09-07 21:00:00 23.9 3 Sudeste 8 Sudeste 0 -- -- 57
2018-09-07 20:00:00 24.9 4 Sudeste 10 Este 0 -- -- 54
2018-09-07 19:00:00 25.8 4 Nordeste 8 Nordeste 0 -- -- 50
2018-09-07 18:00:00 26.1 4 Este 15 Este 0 -- -- 48
2018-09-07 17:00:00 27.3 8 Este 15 Sudeste 0 -- -- 45
2018-09-07 16:00:00 28 5 Noroeste 14 Norte 0 -- -- 44
2018-09-07 15:00:00 27.4 4 Noroeste 15 Sur 0 -- -- 46
2018-09-07 14:00:00 26.5 5 Noroeste 14 Norte 0 -- -- 45
2018-09-07 13:00:00 25.6 5 Noroeste 19 Oeste 0 -- -- 50
2018-09-07 12:00:00 24 8 Oeste 20 Oeste 0 -- -- 55
2018-09-07 11:00:00 22.4 5 Noroeste 24 Oeste 0 -- -- 60
2018-09-07 10:00:00 20.3 9 Noroeste 27 Oeste 0 -- -- 67
2018-09-07 09:00:00 17.9 13 Oeste 22 Oeste 0 -- -- 73
2018-09-07 08:00:00 16.3 12 Sudoeste 22 Oeste 0 -- -- 78
2018-09-07 07:00:00 16.6 13 Sudoeste 21 Sudoeste 0 -- -- 77
2018-09-07 06:00:00 16.7 10 Sudoeste 23 Oeste 0 -- -- 77
2018-09-07 05:00:00 17 13 Oeste 21 Oeste 0 -- -- 75
2018-09-07 04:00:00 17.2 13 Sudoeste 25 Oeste 0 -- -- 75
2018-09-07 03:00:00 17.7 15 Oeste 24 Oeste 0 -- -- 73
2018-09-07 02:00:00 18.1 17 Sudoeste 26 Oeste 0 -- -- 72
2018-09-07 01:00:00 18.7 17 Sudoeste 30 Oeste 0 -- -- 68
2018-09-07 00:00:00 19.2 17 Oeste 25 Sudoeste 0 -- -- 68
2018-09-06 23:00:00 20.2 13 Oeste 22 Oeste 0 -- -- 65
2018-09-06 22:00:00 21.2 12 Oeste 21 Oeste 0 -- -- 63
2018-09-06 21:00:00 22.1 10 Oeste 18 Oeste 0 -- -- 61
2018-09-06 20:00:00 23.9 8 Noroeste 23 Norte 0 -- -- 56
2018-09-06 19:00:00 26.4 6 Noroeste 20 Oeste 0 -- -- 49
2018-09-06 18:00:00 26.7 6 Noroeste 22 Oeste 0 -- -- 49
2018-09-06 17:00:00 27.2 3 Noroeste 16 Norte 0 -- -- 49
2018-09-06 16:00:00 27.7 6 Oeste 18 Oeste 0 -- -- 47
2018-09-06 15:00:00 26.9 8 Noroeste 22 Norte 0 -- -- 51
2018-09-06 14:00:00 25.6 5 Noroeste 16 Oeste 0 -- -- 55
2018-09-06 13:00:00 26 6 Oeste 15 Oeste 0 -- -- 54
2018-09-06 12:00:00 24.4 5 Noroeste 19 Noroeste 0 -- -- 61
2018-09-06 11:00:00 22.6 6 Noroeste 25 Norte 0 -- -- 66
2018-09-06 10:00:00 20.3 12 Oeste 24 Oeste 0 -- -- 74
2018-09-06 09:00:00 17.8 9 Oeste 14 Oeste 0 -- -- 83
2018-09-06 08:00:00 17.6 8 Sudoeste 14 Oeste 0 -- -- 84
2018-09-06 07:00:00 18 12 Oeste 18 Oeste 0 -- -- 85
2018-09-06 06:00:00 18.2 7 Oeste 20 Noroeste 0 -- -- 86
2018-09-06 05:00:00 18.5 6 Noroeste 13 Noroeste 0 -- -- 85
2018-09-06 04:00:00 18.3 6 Sudoeste 11 Oeste 0 -- -- 83
2018-09-06 03:00:00 18.4 6 Sudoeste 15 Oeste 0 -- -- 81
2018-09-06 02:00:00 18.3 6 Oeste 12 Sudoeste 0 -- -- 85
2018-09-06 01:00:00 18.6 10 Sudoeste 12 Sudoeste 0 -- -- 85
2018-09-06 00:00:00 19 5 Oeste 18 Norte 0 -- -- 85
2018-09-05 23:00:00 20 6 Noroeste 25 Noroeste 0 -- -- 84
2018-09-05 22:00:00 20.5 2 Norte 21 Norte 0.2 -- -- 83
2018-09-05 21:00:00 21.7 18 Este 22 Sudeste 0 -- -- 72
2018-09-05 20:00:00 22.3 7 Este 15 Sur 0 -- -- 79
2018-09-05 19:00:00 22.9 13 Sur 23 Sur 0 -- -- 70
2018-09-05 18:00:00 21.3 12 Sur 28 Sur 0 -- -- 74
2018-09-05 17:00:00 19.4 27 Este 54 Sudoeste 19 -- -- 79
2018-09-05 16:00:00 23.9 7 Noroeste 14 Noroeste 0.6 -- -- 80
2018-09-05 15:00:00 24.9 12 Este 20 Este 0.2 -- -- 71
2018-09-05 14:00:00 26.4 8 Nordeste 16 Nordeste 0 -- -- 64
2018-09-05 13:00:00 25.4 7 Este 14 Este 0 -- -- 67
2018-09-05 12:00:00 25 5 Norte 11 Norte 0 -- -- 70
2018-09-05 11:00:00 23.9 4 Noroeste 11 Oeste 0 -- -- 73
2018-09-05 10:00:00 22.3 4 Noroeste 11 Norte 0 -- -- 78
2018-09-05 09:00:00 19.1 8 Oeste 17 Sudoeste 0 -- -- 85
2018-09-05 08:00:00 17.7 9 Sudoeste 13 Sudoeste 0 -- -- 90
2018-09-05 07:00:00 18.4 8 Sudoeste 10 Sudoeste 0 -- -- 85
2018-09-05 06:00:00 19.1 6 Oeste 13 Oeste 0 -- -- 82
2018-09-05 05:00:00 20 3 Noroeste 13 Sudoeste 0 -- -- 79
2018-09-05 04:00:00 20.1 11 Sudoeste 17 Sudoeste 0 -- -- 78
2018-09-05 03:00:00 19.4 4 Oeste 11 Oeste 0 -- -- 79
2018-09-05 02:00:00 20.2 5 Sudoeste 9 Oeste 0 -- -- 77
2018-09-05 01:00:00 20.7 5 Oeste 12 Oeste 0 -- -- 73
2018-09-05 00:00:00 21.6 4 Sudoeste 7 Noroeste 0 -- -- 71
2018-09-04 23:00:00 22.6 2 Sudeste 15 Norte 0 -- -- 67
2018-09-04 22:00:00 23.9 6 Oeste 17 Sur 0 -- -- 59
2018-09-04 21:00:00 24.6 8 Sur 26 Oeste 0 -- -- 52
2018-09-04 20:00:00 26.1 3 Sudeste 14 Oeste 0 -- -- 60
2018-09-04 19:00:00 27.1 12 Oeste 22 Oeste 0 -- -- 53
2018-09-04 18:00:00 28.4 3 Oeste 10 Este 0 -- -- 49
2018-09-04 17:00:00 28.3 7 Este 12 Nordeste 0 -- -- 46
2018-09-04 16:00:00 27.5 6 Nordeste 16 Este 0 -- -- 49
2018-09-04 15:00:00 27.4 5 Nordeste 11 Nordeste 0 -- -- 50
2018-09-04 14:00:00 26.4 5 Este 10 Este 0 -- -- 50
2018-09-04 13:00:00 25.2 4 Sur 11 Nordeste 0 -- -- 50
2018-09-04 12:00:00 23.8 5 Nordeste 11 Nordeste 0 -- -- 53
2018-09-04 11:00:00 22.4 3 Norte 8 Nordeste 0 -- -- 60
2018-09-04 10:00:00 20.3 2 Norte 4 Noroeste 0 -- -- 68
2018-09-04 09:00:00 18.5 3 Norte 9 Oeste 0 -- -- 77
2018-09-04 08:00:00 16.9 8 Sudoeste 13 Sudoeste 0 -- -- 90
2018-09-04 07:00:00 17.6 8 Sudoeste 12 Sudoeste 0 -- -- 84
2018-09-04 06:00:00 17.7 5 Oeste 11 Oeste 0 -- -- 89
2018-09-04 05:00:00 18.8 6 Sudoeste 12 Sudoeste 0 -- -- 80
2018-09-04 04:00:00 18.5 9 Sudoeste 16 Sudoeste 0 -- -- 85
2018-09-04 03:00:00 18.4 9 Oeste 14 Nordeste 0 -- -- 90
2018-09-04 02:00:00 18.8 12 Nordeste 23 Nordeste 0 -- -- 88
2018-09-04 01:00:00 18.8 10 Sudoeste 14 Sudoeste 0 -- -- 87
2018-09-04 00:00:00 19.3 3 Noroeste 12 Sur 0 -- -- 88
2018-09-03 23:00:00 19.5 7 Sur 12 Sudeste 0 -- -- 86
2018-09-03 22:00:00 19.7 12 Oeste 38 Sudeste 0 -- -- 82
2018-09-03 21:00:00 18.3 15 Sudeste 107 Oeste 12.8 -- -- 86
2018-09-03 20:00:00 27.1 18 Nordeste 31 Este 0 -- -- 61
2018-09-03 19:00:00 28.9 16 Nordeste 29 Este 0 -- -- 58
2018-09-03 18:00:00 29.1 19 Nordeste 29 Nordeste 0 -- -- 51
2018-09-03 17:00:00 29.5 10 Este 18 Este 0 -- -- 49
2018-09-03 16:00:00 30.1 8 Nordeste 19 Nordeste 0 -- -- 49
2018-09-03 15:00:00 28.2 5 Norte 19 Oeste 0 -- -- 60
2018-09-03 14:00:00 25.6 18 Sudoeste 58 Nordeste 0 -- -- 62
2018-09-03 13:00:00 25 11 Este 22 Oeste 0 -- -- 65
2018-09-03 12:00:00 27.1 7 Noroeste 22 Noroeste 0 -- -- 64
2018-09-03 11:00:00 23.9 5 Noroeste 18 Oeste 0 -- -- 78
2018-09-03 10:00:00 21.9 14 Este 19 Este 0 -- -- 79
2018-09-03 09:00:00 21.2 10 Sur 22 Sudoeste 0 -- -- 75
2018-09-03 08:00:00 20.4 7 Noroeste 23 Oeste 0 -- -- 76
2018-09-03 07:00:00 20.6 7 Nordeste 18 Oeste 0 -- -- 84
2018-09-03 06:00:00 20.6 11 Oeste 16 Oeste 0 -- -- 82
2018-09-03 05:00:00 20 5 Sudoeste 10 Sudoeste 0 -- -- 82
2018-09-03 04:00:00 19.8 4 Oeste 8 Oeste 0 -- -- 78
2018-09-03 03:00:00 20 7 Sudoeste 9 Oeste 0 -- -- 66
2018-09-03 02:00:00 21.2 4 Sudoeste 6 Sudoeste 0 -- -- 60
2018-09-03 01:00:00 22.3 3 Oeste 5 Sudoeste 0 -- -- 55
2018-09-03 00:00:00 23.4 3 Sur 10 Este 0 -- -- 54
2018-09-02 23:00:00 25.1 3 Sudoeste 12 Sudoeste 0 -- -- 47
2018-09-02 22:00:00 26.3 6 Sudoeste 8 Sudoeste 0 -- -- 43
2018-09-02 21:00:00 28.4 2 Sur 5 Sur 0 -- -- 39
2018-09-02 20:00:00 30.8 3 Sudoeste 12 Sudeste 0 -- -- 33
2018-09-02 19:00:00 31.4 5 Este 12 Este 0 -- -- 34
2018-09-02 18:00:00 32.2 4 Sudeste 11 Nordeste 0 -- -- 34
2018-09-02 17:00:00 33.1 4 Noroeste 16 Nordeste 0 -- -- 32
2018-09-02 16:00:00 31.8 5 Nordeste 13 Noroeste 0 -- -- 36
2018-09-02 15:00:00 31.9 5 Norte 14 Norte 0 -- -- 36
2018-09-02 14:00:00 30 6 Norte 17 Noroeste 0 -- -- 37
2018-09-02 13:00:00 28.1 4 Norte 15 Nordeste 0 -- -- 39
2018-09-02 12:00:00 27 4 Norte 12 Oeste 0 -- -- 42
2018-09-02 11:00:00 25.4 4 Noroeste 10 Norte 0 -- -- 46
2018-09-02 10:00:00 22.7 3 Noroeste 6 Oeste 0 -- -- 53
2018-09-02 09:00:00 18.9 4 Sudoeste 9 Oeste 0 -- -- 64
2018-09-02 08:00:00 17.2 3 Sudoeste 8 Oeste 0 -- -- 67
2018-09-02 07:00:00 16.5 5 Sudoeste 12 Sudoeste 0 -- -- 71
2018-09-02 06:00:00 17 8 Sudoeste 12 Sudoeste 0 -- -- 70
2018-09-02 05:00:00 18.2 6 Sudoeste 11 Sudoeste 0 -- -- 65
2018-09-02 04:00:00 19.1 6 Sudoeste 15 Sudoeste 0 -- -- 62
2018-09-02 03:00:00 19.7 6 Sudoeste 11 Sudoeste 0 -- -- 61
2018-09-02 02:00:00 21.2 0 Calma 7 Este 0 -- -- 57
2018-09-02 01:00:00 22.2 0 Calma 17 Sudoeste 0 -- -- 52
2018-09-02 00:00:00 22.9 12 Sudoeste 19 Sudoeste 0 -- -- 49
2018-09-01 23:00:00 23.4 9 Sudoeste 13 Sudoeste 0 -- -- 50
2018-09-01 22:00:00 25.3 9 Sudoeste 13 Sudoeste 0 -- -- 46
2018-09-01 21:00:00 27.7 8 Sudeste 10 Este 0 -- -- 40
2018-09-01 20:00:00 29.6 4 Este 16 Norte 0 -- -- 36
2018-09-01 19:00:00 31.4 3 Noroeste 13 Norte 0 -- -- 32
2018-09-01 18:00:00 32.6 4 Noroeste 15 Noroeste 0 -- -- 32
2018-09-01 17:00:00 32.8 6 Noroeste 20 Norte 0 -- -- 33
2018-09-01 16:00:00 32.6 7 Noroeste 19 Oeste 0 -- -- 34
2018-09-01 15:00:00 31.5 5 Oeste 17 Norte 0 -- -- 38
2018-09-01 14:00:00 29.9 4 Noroeste 19 Noroeste 0 -- -- 44
2018-09-01 13:00:00 28.6 7 Noroeste 21 Norte 0 -- -- 44
2018-09-01 12:00:00 27 6 Noroeste 26 Oeste 0 -- -- 48
2018-09-01 11:00:00 24.9 10 Oeste 27 Oeste 0 -- -- 56
2018-09-01 10:00:00 21.9 15 Oeste 27 Oeste 0 -- -- 62
2018-09-01 09:00:00 20.4 10 Oeste 21 Oeste 0 -- -- 68
2018-09-01 08:00:00 18.8 13 Oeste 21 Oeste 0 -- -- 72
2018-09-01 07:00:00 18.6 12 Oeste 20 Oeste 0 -- -- 73
2018-09-01 06:00:00 18.6 10 Sudoeste 24 Oeste 0 -- -- 72
2018-09-01 05:00:00 19.7 11 Oeste 21 Oeste 0 -- -- 67
2018-09-01 04:00:00 20.2 9 Sudoeste 28 Oeste 0 -- -- 65
2018-09-01 03:00:00 20.4 17 Oeste 28 Oeste 0 -- -- 64
2018-09-01 02:00:00 21.4 21 Oeste 28 Oeste 0 -- -- 61
2018-09-01 01:00:00 21.8 18 Oeste 27 Oeste 0 -- -- 59
2018-09-01 00:00:00 22.6 15 Oeste 30 Oeste 0 -- -- 56
2018-08-31 23:00:00 23.8 14 Oeste 25 Oeste 0 -- -- 52
2018-08-31 22:00:00 24.9 6 Noroeste 19 Noroeste 0 -- -- 48
2018-08-31 21:00:00 26.5 6 Noroeste 15 Oeste 0 -- -- 41
2018-08-31 20:00:00 28.6 6 Noroeste 14 Norte 0 -- -- 36
2018-08-31 19:00:00 30.6 5 Noroeste 18 Oeste 0 -- -- 35
2018-08-31 18:00:00 31.2 6 Norte 18 Norte 0 -- -- 32
2018-08-31 17:00:00 31.6 5 Noroeste 19 Norte 0 -- -- 32
2018-08-31 16:00:00 31 5 Norte 17 Norte 0 -- -- 38
2018-08-31 15:00:00 29.4 5 Norte 13 Norte 0 -- -- 38
2018-08-31 14:00:00 28.2 6 Norte 14 Noroeste 0 -- -- 42
2018-08-31 13:00:00 27.7 5 Noroeste 16 Noroeste 0 -- -- 45
2018-08-31 12:00:00 26.2 5 Noroeste 20 Noroeste 0 -- -- 49
2018-08-31 11:00:00 24.3 5 Noroeste 18 Noroeste 0 -- -- 53
2018-08-31 10:00:00 22.4 5 Noroeste 19 Noroeste 0 -- -- 58
2018-08-31 09:00:00 20.1 8 Oeste 14 Noroeste 0 -- -- 66
2018-08-31 08:00:00 18.5 5 Oeste 19 Oeste 0 -- -- 69
2018-08-31 07:00:00 19.4 5 Noroeste 19 Oeste 0 -- -- 66
2018-08-31 06:00:00 19.9 11 Oeste 23 Oeste 0 -- -- 63
2018-08-31 05:00:00 20.2 15 Oeste 23 Oeste 0 -- -- 63
2018-08-31 04:00:00 20.4 14 Oeste 23 Oeste 0 -- -- 62
2018-08-31 03:00:00 21.2 16 Oeste 24 Sudoeste 0 -- -- 60
2018-08-31 02:00:00 21.8 14 Sudoeste 25 Oeste 0 -- -- 60
2018-08-31 01:00:00 23 14 Oeste 24 Oeste 0 -- -- 60
2018-08-31 00:00:00 24.2 8 Noroeste 21 Noroeste 0 -- -- 57
2018-08-30 23:00:00 24.6 8 Oeste 10 Oeste 0 -- -- 59
2018-08-30 22:00:00 25.6 4 Sudoeste 6 Norte 0 -- -- 55
2018-08-30 21:00:00 27.1 3 Norte 5 Nordeste 0 -- -- 51
2018-08-30 20:00:00 28.5 3 Nordeste 10 Nordeste 0 -- -- 47
2018-08-30 19:00:00 29.7 4 Norte 9 Norte 0 -- -- 46
2018-08-30 18:00:00 30.1 4 Noroeste 15 Nordeste 0 -- -- 45
2018-08-30 17:00:00 30.6 5 Sur 15 Nordeste 0 -- -- 44
2018-08-30 16:00:00 29 7 Nordeste 17 Este 0 -- -- 46
2018-08-30 15:00:00 28.4 4 Norte 14 Nordeste 0 -- -- 46
2018-08-30 14:00:00 28 4 Norte 12 Oeste 0 -- -- 49
2018-08-30 13:00:00 26.8 5 Noroeste 14 Norte 0 -- -- 51
2018-08-30 12:00:00 25.6 6 Oeste 18 Norte 0 -- -- 54
2018-08-30 11:00:00 24.1 5 Norte 15 Noroeste 0 -- -- 59
2018-08-30 10:00:00 21.9 6 Oeste 19 Oeste 0 -- -- 64
2018-08-30 09:00:00 19.5 9 Oeste 15 Oeste 0 -- -- 73
2018-08-30 08:00:00 17.9 11 Oeste 17 Sudoeste 0 -- -- 77
2018-08-30 07:00:00 18.1 14 Oeste 21 Oeste 0 -- -- 76
2018-08-30 06:00:00 18.1 14 Oeste 25 Oeste 0 -- -- 77
2018-08-30 05:00:00 18.5 15 Oeste 21 Oeste 0 -- -- 78
2018-08-30 04:00:00 18.9 13 Oeste 22 Oeste 0 -- -- 78
2018-08-30 03:00:00 19.5 11 Oeste 18 Oeste 0 -- -- 77
2018-08-30 02:00:00 20.3 5 Oeste 17 Oeste 0 -- -- 74
2018-08-30 01:00:00 21.3 13 Oeste 20 Oeste 0 -- -- 71
2018-08-30 00:00:00 22.9 13 Oeste 22 Oeste 0 -- -- 64
2018-08-29 23:00:00 24 11 Oeste 23 Oeste 0 -- -- 59
2018-08-29 22:00:00 25.2 10 Noroeste 23 Noroeste 0 -- -- 57
2018-08-29 21:00:00 27.2 5 Noroeste 11 Oeste 0 -- -- 54
2018-08-29 20:00:00 29.3 5 Sudoeste 9 Oeste 0 -- -- 47
2018-08-29 19:00:00 30.5 5 Noroeste 13 Noroeste 0 -- -- 45
2018-08-29 18:00:00 31.5 4 Noroeste 13 Noroeste 0 -- -- 42
2018-08-29 17:00:00 31.2 4 Norte 15 Noroeste 0 -- -- 41
2018-08-29 16:00:00 31.3 5 Norte 15 Noroeste 0 -- -- 46
2018-08-29 15:00:00 31.6 6 Noroeste 23 Norte 0 -- -- 44
2018-08-29 14:00:00 30.1 7 Noroeste 17 Norte 0 -- -- 47
2018-08-29 13:00:00 29 6 Noroeste 20 Norte 0 -- -- 48
2018-08-29 12:00:00 27.7 8 Noroeste 19 Noroeste 0 -- -- 53
2018-08-29 11:00:00 25.6 7 Noroeste 18 Oeste 0 -- -- 57
2018-08-29 10:00:00 23.4 7 Oeste 13 Oeste 0 -- -- 67
2018-08-29 09:00:00 19.5 8 Sudoeste 13 Sudoeste 0 -- -- 77
2018-08-29 08:00:00 18 7 Sudoeste 10 Sudoeste 0 -- -- 81
2018-08-29 07:00:00 18.9 5 Sudoeste 13 Oeste 0 -- -- 74
2018-08-29 06:00:00 18.9 4 Sudoeste 10 Oeste 0 -- -- 78
2018-08-29 05:00:00 20 5 Sudoeste 9 Oeste 0 -- -- 74
2018-08-29 04:00:00 21 8 Oeste 14 Oeste 0 -- -- 67
2018-08-29 03:00:00 22.4 3 Sur 46 Sudeste 0 -- -- 55
2018-08-29 02:00:00 22.3 27 Sudeste 43 Sudeste 0.8 -- -- 60
2018-08-29 01:00:00 23.7 5 Oeste 57 Sudoeste 0.4 -- -- 63
2018-08-29 00:00:00 25.7 35 Sur 61 Sur 0 -- -- 49
2018-08-28 23:00:00 23.8 22 Este 35 Este 0 -- -- 62
2018-08-28 22:00:00 23.6 20 Sudeste 31 Sudeste 1.2 -- -- 67
2018-08-28 21:00:00 24.1 12 Sudeste 57 Este 0 -- -- 62
2018-08-28 20:00:00 23.3 39 Este 91 Este 8 -- -- 64
2018-08-28 19:00:00 24.1 25 Sudeste 53 Este 15.6 -- -- 74
2018-08-28 18:00:00 29.3 13 Sudeste 42 Sudeste 0 -- -- 56
2018-08-28 17:00:00 32.8 19 Este 28 Este 0 -- -- 41
2018-08-28 16:00:00 34.1 12 Este 22 Este 0 -- -- 39
2018-08-28 15:00:00 32.5 6 Nordeste 17 Nordeste 0 -- -- 47
2018-08-28 14:00:00 29.8 5 Nordeste 13 Este 0 -- -- 57
2018-08-28 13:00:00 29.3 6 Nordeste 14 Nordeste 0 -- -- 59
2018-08-28 12:00:00 27.3 5 Noroeste 9 Oeste 0 -- -- 67
2018-08-28 11:00:00 24.4 3 Oeste 9 Nordeste 0 -- -- 76
2018-08-28 10:00:00 23 4 Nordeste 9 Oeste 0 -- -- 82
2018-08-28 09:00:00 22 4 Oeste 10 Oeste 0 -- -- 84
2018-08-28 08:00:00 20.6 5 Sudoeste 9 Sudoeste 0 -- -- 87
2018-08-28 07:00:00 20 4 Sudoeste 11 Sudoeste 0 -- -- 87
2018-08-28 06:00:00 20.2 4 Sudoeste 7 Sudoeste 0 -- -- 81
2018-08-28 05:00:00 21 0 Calma 6 Sudoeste 0 -- -- 77
2018-08-28 04:00:00 20.9 4 Sudoeste 8 Sudoeste 0 -- -- 75
2018-08-28 03:00:00 21.9 4 Sudoeste 11 Nordeste 0 -- -- 72
2018-08-28 02:00:00 23.3 6 Nordeste 10 Nordeste 0 -- -- 75
2018-08-28 01:00:00 24.4 3 Nordeste 9 Nordeste 0 -- -- 67
2018-08-28 00:00:00 25.6 4 Nordeste 8 Nordeste 0 -- -- 63
2018-08-27 23:00:00 27.7 8 Este 10 Este 0 -- -- 57
2018-08-27 22:00:00 29.2 5 Sudeste 9 Este 0 -- -- 51
2018-08-27 21:00:00 30.3 2 Sudeste 12 Este 0 -- -- 32
2018-08-27 20:00:00 32 8 Nordeste 12 Nordeste 0 -- -- 30
2018-08-27 19:00:00 33.2 6 Nordeste 17 Nordeste 0 -- -- 29
2018-08-27 18:00:00 34 6 Nordeste 18 Nordeste 0 -- -- 30
2018-08-27 17:00:00 34.2 4 Norte 18 Nordeste 0 -- -- 31
2018-08-27 16:00:00 33.4 5 Norte 13 Nordeste 0 -- -- 31
2018-08-27 15:00:00 31.9 6 Nordeste 21 Este 0 -- -- 35
2018-08-27 14:00:00 30.8 8 Este 19 Este 0 -- -- 36
2018-08-27 13:00:00 29.1 4 Nordeste 15 Noroeste 0 -- -- 40
2018-08-27 12:00:00 28.4 4 Norte 13 Nordeste 0 -- -- 40
2018-08-27 11:00:00 26.6 3 Norte 8 Nordeste 0 -- -- 45
2018-08-27 10:00:00 24.4 3 Nordeste 5 Este 0 -- -- 51
2018-08-27 09:00:00 21 0 Calma 7 Sudoeste 0 -- -- 57
2018-08-27 08:00:00 18.6 0 Calma 10 Sudoeste 0 -- -- 64
2018-08-27 07:00:00 18.3 3 Sudoeste 12 Sudoeste 0 -- -- 64
2018-08-27 06:00:00 18.6 5 Sudoeste 13 Oeste 0 -- -- 63
2018-08-27 05:00:00 19 8 Sudoeste 13 Sudoeste 0 -- -- 62
2018-08-27 04:00:00 19.3 4 Sudoeste 7 Sudoeste 0 -- -- 61
2018-08-27 03:00:00 20.2 6 Sur 12 Sudoeste 0 -- -- 57
2018-08-27 02:00:00 20.9 10 Sudoeste 15 Sudoeste 0 -- -- 55
2018-08-27 01:00:00 21.1 12 Sudoeste 17 Sudoeste 0 -- -- 54
2018-08-27 00:00:00 21.9 9 Sudoeste 12 Sudoeste 0 -- -- 52
2018-08-26 23:00:00 23 7 Sudoeste 10 Sudoeste 0 -- -- 48
2018-08-26 22:00:00 25.2 5 Sudoeste 7 Sudoeste 0 -- -- 42
2018-08-26 21:00:00 26.8 3 Sur 6 Oeste 0 -- -- 39
2018-08-26 20:00:00 28.1 2 Nordeste 16 Nordeste 0 -- -- 36
2018-08-26 19:00:00 29.2 6 Nordeste 15 Nordeste 0 -- -- 35
2018-08-26 18:00:00 30 6 Nordeste 18 Nordeste 0 -- -- 36
2018-08-26 17:00:00 30 6 Nordeste 17 Nordeste 0 -- -- 36
2018-08-26 16:00:00 29.9 6 Noroeste 16 Este 0 -- -- 35
2018-08-26 15:00:00 28.9 5 Norte 16 Noroeste 0 -- -- 37
2018-08-26 14:00:00 27.1 4 Noroeste 22 Nordeste 0 -- -- 39
2018-08-26 13:00:00 25.6 6 Nordeste 14 Nordeste 0 -- -- 41
2018-08-26 12:00:00 24.5 3 Noroeste 12 Noroeste 0 -- -- 44
2018-08-26 11:00:00 22.5 4 Sur 9 Noroeste 0 -- -- 47
2018-08-26 10:00:00 21 3 Noroeste 9 Noroeste 0 -- -- 49
2018-08-26 09:00:00 18.5 2 Norte 6 Sudoeste 0 -- -- 56
2018-08-26 08:00:00 16 4 Oeste 10 Oeste 0 -- -- 60
2018-08-26 07:00:00 16.4 7 Oeste 17 Sudoeste 0 -- -- 57
2018-08-26 06:00:00 16.8 12 Sudoeste 21 Oeste 0 -- -- 56
2018-08-26 05:00:00 17 17 Oeste 26 Oeste 0 -- -- 58
2018-08-26 04:00:00 17.1 19 Oeste 26 Oeste 0 -- -- 60
2018-08-26 03:00:00 17.1 14 Oeste 24 Oeste 0 -- -- 59
2018-08-26 02:00:00 17.6 14 Sudoeste 27 Oeste 0 -- -- 55
2018-08-26 01:00:00 18.5 18 Oeste 34 Oeste 0 -- -- 51
2018-08-26 00:00:00 19.7 18 Oeste 32 Oeste 0 -- -- 48
2018-08-25 23:00:00 20.7 17 Oeste 26 Oeste 0 -- -- 48
2018-08-25 22:00:00 21.5 10 Noroeste 28 Noroeste 0 -- -- 47
2018-08-25 21:00:00 23.1 11 Noroeste 27 Noroeste 0 -- -- 45
2018-08-25 20:00:00 25.3 9 Noroeste 25 Noroeste 0 -- -- 40
2018-08-25 19:00:00 26.9 10 Noroeste 28 Norte 0 -- -- 37
2018-08-25 18:00:00 28.4 8 Noroeste 35 Noroeste 0 -- -- 37
2018-08-25 17:00:00 28.1 9 Noroeste 28 Noroeste 0 -- -- 35
2018-08-25 16:00:00 29.9 9 Noroeste 29 Norte 0 -- -- 32
2018-08-25 15:00:00 29.5 13 Noroeste 33 Norte 0 -- -- 32
2018-08-25 14:00:00 28.4 10 Noroeste 31 Oeste 0 -- -- 35
2018-08-25 13:00:00 27.4 9 Noroeste 31 Oeste 0 -- -- 37
2018-08-25 12:00:00 25.7 8 Noroeste 30 Oeste 0 -- -- 40
2018-08-25 11:00:00 23.3 10 Oeste 30 Oeste 0 -- -- 46
2018-08-25 10:00:00 20.7 14 Oeste 30 Oeste 0 -- -- 53
2018-08-25 09:00:00 18.1 16 Oeste 25 Oeste 0 -- -- 62
2018-08-25 08:00:00 16.2 12 Oeste 19 Sudoeste 0 -- -- 68
2018-08-25 07:00:00 16.5 14 Sudoeste 26 Oeste 0 -- -- 68
2018-08-25 06:00:00 16.5 12 Sudoeste 20 Oeste 0 -- -- 69
2018-08-25 05:00:00 17.3 17 Oeste 29 Oeste 0 -- -- 65
2018-08-25 04:00:00 17.4 14 Sudoeste 23 Oeste 0 -- -- 64
2018-08-25 03:00:00 17.9 12 Oeste 28 Oeste 0 -- -- 62
2018-08-25 02:00:00 19 15 Oeste 35 Oeste 0 -- -- 59
2018-08-25 01:00:00 19.7 15 Oeste 27 Oeste 0 -- -- 56
2018-08-25 00:00:00 20.6 12 Oeste 28 Oeste 0 -- -- 54
2018-08-24 23:00:00 21.4 17 Oeste 35 Oeste 0 -- -- 52
2018-08-24 22:00:00 22.4 14 Noroeste 32 Oeste 0 -- -- 51
2018-08-24 21:00:00 24.4 9 Noroeste 29 Norte 0 -- -- 49
2018-08-24 20:00:00 27 9 Noroeste 28 Norte 0 -- -- 44
2018-08-24 19:00:00 29.1 9 Noroeste 32 Norte 0 -- -- 39
2018-08-24 18:00:00 30.6 12 Noroeste 35 Noroeste 0 -- -- 37
2018-08-24 17:00:00 31.7 12 Noroeste 37 Noroeste 0 -- -- 37
2018-08-24 16:00:00 31.7 9 Noroeste 37 Noroeste 0 -- -- 38
2018-08-24 15:00:00 31.6 12 Noroeste 35 Oeste 0 -- -- 38
2018-08-24 14:00:00 31.2 12 Noroeste 30 Oeste 0 -- -- 37
2018-08-24 13:00:00 29.3 10 Noroeste 35 Oeste 0 -- -- 41
2018-08-24 12:00:00 27.8 13 Noroeste 33 Oeste 0 -- -- 45
2018-08-24 11:00:00 25 22 Oeste 36 Noroeste 0 -- -- 51
2018-08-24 10:00:00 23.1 21 Oeste 36 Oeste 0 -- -- 54
2018-08-24 09:00:00 20.7 20 Oeste 33 Oeste 0 -- -- 63
2018-08-24 08:00:00 19 16 Sudoeste 24 Oeste 0 -- -- 71
2018-08-24 07:00:00 19.5 19 Oeste 27 Oeste 0 -- -- 68
2018-08-24 06:00:00 19.9 14 Oeste 27 Oeste 0 -- -- 67
2018-08-24 05:00:00 19.7 13 Oeste 23 Oeste 0 -- -- 68
2018-08-24 04:00:00 20.5 15 Oeste 27 Oeste 0 -- -- 65
2018-08-24 03:00:00 21.2 15 Oeste 23 Oeste 0 -- -- 64
2018-08-24 02:00:00 22.2 19 Oeste 34 Oeste 0 -- -- 61
2018-08-24 01:00:00 23.5 17 Oeste 32 Oeste 0 -- -- 58
2018-08-24 00:00:00 24.5 13 Oeste 27 Oeste 0 -- -- 56
2018-08-23 23:00:00 25.6 11 Noroeste 32 Oeste 0 -- -- 54
2018-08-23 22:00:00 27.1 9 Noroeste 28 Noroeste 0 -- -- 51
2018-08-23 21:00:00 28.9 8 Noroeste 25 Norte 0 -- -- 48
2018-08-23 20:00:00 31.4 9 Noroeste 23 Norte 0 -- -- 40
2018-08-23 19:00:00 33.2 6 Norte 17 Noroeste 0 -- -- 35
2018-08-23 18:00:00 33.7 3 Oeste 14 Nordeste 0 -- -- 38
2018-08-23 17:00:00 33.8 3 Norte 17 Este 0 -- -- 39
2018-08-23 16:00:00 34.5 6 Noroeste 19 Norte 0 -- -- 36
2018-08-23 15:00:00 33.4 6 Norte 17 Noroeste 0 -- -- 35
2018-08-23 14:00:00 32.5 5 Norte 15 Noroeste 0 -- -- 40
2018-08-23 13:00:00 30.9 5 Norte 14 Nordeste 0 -- -- 43
2018-08-23 12:00:00 29.3 4 Norte 12 Noroeste 0 -- -- 47
2018-08-23 11:00:00 27.2 3 Nordeste 9 Noroeste 0 -- -- 52
2018-08-23 10:00:00 25.4 2 Noroeste 6 Noroeste 0 -- -- 58
2018-08-23 09:00:00 22.1 3 Sudoeste 11 Sudoeste 0 -- -- 71
2018-08-23 08:00:00 19.3 9 Sudoeste 12 Oeste 0 -- -- 81
2018-08-23 07:00:00 19.8 5 Sudoeste 8 Sudoeste 0 -- -- 78
2018-08-23 06:00:00 20.1 6 Sudoeste 12 Oeste 0 -- -- 77
2018-08-23 05:00:00 20.7 6 Sudoeste 11 Oeste 0 -- -- 73
2018-08-23 04:00:00 21.1 5 Oeste 8 Oeste 0 -- -- 75
2018-08-23 03:00:00 21.7 5 Sudoeste 13 Oeste 0 -- -- 73
2018-08-23 02:00:00 22.6 8 Sudoeste 13 Sudoeste 0 -- -- 70
2018-08-23 01:00:00 24.1 4 Sudeste 19 Este 0 -- -- 65
2018-08-23 00:00:00 25.2 13 Este 29 Este 0 -- -- 61